Time;durP1;ratioP1;P1;durP2;ratioP2;P2;SDS_P1;SDS_P2;PMS_P1;PMS_P2;Temp;Humidity;BMP_temperature;BMP_pressure;BME280_temperature;BME280_humidity;BME280_pressure;Samples;Min_cycle;Max_cycle;Signal;HPM_P1;HPM_P2
2022/11/05 00:10:04;;;;;;;2.05;0.73;;;6.00;99.90;;;;;;5003664;28;20046;-82
2022/11/05 00:17:58;;;;;;;5.32;2.70;;;6.30;99.90;;;;;;5011019;28;20046;-82
2022/11/05 00:20:23;;;;;;;1.02;0.98;;;6.40;99.90;;;;;;5004289;28;20044;-82
2022/11/05 00:25:33;;;;;;;6.13;1.90;;;6.60;99.90;;;;;;4989824;28;20042;-82
2022/11/05 00:28:01;;;;;;;3.38;0.95;;;6.70;99.90;;;;;;5006409;28;20060;-83
2022/11/05 00:30:28;;;;;;;0.52;0.35;;;6.80;99.90;;;;;;5003061;28;20085;-86
2022/11/05 00:33:00;;;;;;;1.55;1.20;;;6.80;99.90;;;;;;4990585;28;20045;-84
2022/11/05 00:35:25;;;;;;;1.83;1.13;;;6.80;99.90;;;;;;5002712;28;20478;-81
2022/11/05 00:37:52;;;;;;;0.88;0.68;;;6.80;99.90;;;;;;5005282;28;20056;-82
2022/11/05 00:40:18;;;;;;;2.40;0.98;;;6.80;99.90;;;;;;5005518;28;20068;-82
2022/11/05 00:45:30;;;;;;;1.45;0.70;;;6.70;99.90;;;;;;5003157;28;20053;-82
2022/11/05 00:50:39;;;;;;;1.27;0.88;;;6.60;99.90;;;;;;5007165;28;20504;-82
2022/11/05 00:53:06;;;;;;;2.13;1.40;;;6.50;99.90;;;;;;5000374;28;20038;-82
2022/11/05 00:55:39;;;;;;;0.93;0.88;;;6.50;99.90;;;;;;4975737;28;20050;-82
2022/11/05 00:58:11;;;;;;;2.67;0.45;;;6.50;99.90;;;;;;4996503;28;20335;-82
2022/11/05 01:00:39;;;;;;;0.63;0.63;;;6.40;99.90;;;;;;5006841;28;20042;-82
2022/11/05 01:03:11;;;;;;;0.52;0.40;;;6.40;99.90;;;;;;5010709;28;20057;-82
2022/11/05 01:05:40;;;;;;;1.60;1.02;;;6.20;99.90;;;;;;5009880;28;20057;-82
2022/11/05 01:08:07;;;;;;;1.23;0.60;;;6.20;99.90;;;;;;4992614;28;20125;-82
2022/11/05 01:10:33;;;;;;;0.93;0.80;;;6.10;99.90;;;;;;4992429;28;20052;-82
2022/11/05 01:12:59;;;;;;;2.75;0.80;;;6.00;99.90;;;;;;4986729;28;20121;-82
2022/11/05 01:15:24;;;;;;;2.65;0.52;;;6.00;99.90;;;;;;5004415;28;20038;-82
2022/11/05 01:17:51;;;;;;;3.40;1.30;;;6.00;99.90;;;;;;4990041;28;20049;-81
2022/11/05 01:20:17;;;;;;;1.48;0.50;;;5.90;99.90;;;;;;5003717;28;20046;-82
2022/11/05 01:22:42;;;;;;;1.17;1.15;;;5.90;99.90;;;;;;4990271;28;20099;-82
2022/11/05 01:25:09;;;;;;;0.57;0.57;;;5.90;99.90;;;;;;4989097;28;20128;-82
2022/11/05 01:27:36;;;;;;;0.57;0.32;;;5.80;99.90;;;;;;5000744;28;20050;-82
2022/11/05 01:30:03;;;;;;;0.70;0.50;;;5.80;99.90;;;;;;4983190;28;20031;-83
2022/11/05 01:32:29;;;;;;;1.35;0.90;;;5.80;99.90;;;;;;5003060;28;20551;-83
2022/11/05 01:34:55;;;;;;;6.65;1.55;;;5.80;99.90;;;;;;5003487;28;20076;-83
2022/11/05 01:37:20;;;;;;;1.40;1.30;;;5.80;99.90;;;;;;4990845;28;20727;-82
2022/11/05 01:39:46;;;;;;;5.30;0.70;;;5.80;99.90;;;;;;5006085;28;20054;-83
2022/11/05 01:42:23;;;;;;;1.30;1.17;;;5.80;99.90;;;;;;5003089;28;20504;-83
2022/11/05 01:45:02;;;;;;;0.47;0.40;;;5.80;99.90;;;;;;5005005;28;20497;-83
2022/11/05 01:47:40;;;;;;;1.30;0.82;;;5.80;99.90;;;;;;5003701;28;20490;-82
2022/11/05 01:50:16;;;;;;;1.23;0.80;;;5.70;99.90;;;;;;5004421;28;20038;-83
2022/11/05 01:52:42;;;;;;;12.15;1.27;;;5.80;99.90;;;;;;5005922;28;20465;-83
2022/11/05 01:55:10;;;;;;;5.78;2.00;;;5.70;99.90;;;;;;5003758;28;20077;-83
2022/11/05 01:57:36;;;;;;;2.00;1.02;;;5.70;99.90;;;;;;5004371;28;20591;-82
2022/11/05 02:00:02;;;;;;;3.03;1.13;;;5.70;99.90;;;;;;5015421;28;20057;-82
2022/11/05 02:02:29;;;;;;;2.88;1.00;;;5.70;99.90;;;;;;5009208;28;20050;-82
2022/11/05 02:05:01;;;;;;;0.57;0.50;;;5.70;99.90;;;;;;4995530;28;20046;-83
2022/11/05 02:07:28;;;;;;;0.93;0.93;;;5.60;99.90;;;;;;5009368;28;20042;-82
2022/11/05 02:10:02;;;;;;;1.45;1.23;;;5.60;99.90;;;;;;5008746;28;20356;-83
2022/11/05 02:12:29;;;;;;;2.75;1.30;;;5.60;99.90;;;;;;5010408;28;20557;-83
2022/11/05 02:14:56;;;;;;;7.00;1.55;;;5.60;99.90;;;;;;5006385;28;20116;-83
2022/11/05 02:17:26;;;;;;;6.00;1.50;;;5.50;99.90;;;;;;5013034;28;20372;-83
2022/11/05 02:20:12;;;;;;;2.30;0.90;;;5.50;99.90;;;;;;5007454;28;20049;-83
2022/11/05 02:23:08;;;;;;;7.85;1.63;;;5.60;99.90;;;;;;5010682;28;20054;-83
2022/11/05 02:26:12;;;;;;;1.58;1.48;;;5.60;99.90;;;;;;5024330;28;20041;-82
2022/11/05 02:29:08;;;;;;;0.65;0.60;;;5.60;99.90;;;;;;5009114;28;20053;-82
2022/11/05 02:31:40;;;;;;;5.60;0.75;;;5.60;99.90;;;;;;5010720;28;20050;-85
2022/11/05 02:34:12;;;;;;;;;;;5.60;99.90;;;;;;5012175;28;20053;-83
2022/11/05 02:37:06;;;;;;;1.25;0.98;;;5.60;99.90;;;;;;4988122;28;19948;-84
2022/11/05 02:39:56;;;;;;;5.93;2.33;;;5.60;99.90;;;;;;5026853;28;20054;-83
2022/11/05 02:42:49;;;;;;;2.83;0.73;;;5.60;99.90;;;;;;5009763;28;20062;-84
2022/11/05 02:45:23;;;;;;;1.80;1.08;;;5.60;99.90;;;;;;5011810;28;20042;-83
2022/11/05 02:48:23;;;;;;;0.88;0.45;;;5.60;99.90;;;;;;5004242;28;20180;-83
2022/11/05 02:51:11;;;;;;;2.10;1.42;;;5.60;99.90;;;;;;4992254;28;20065;-86
2022/11/05 02:53:56;;;;;;;1.38;1.10;;;5.60;99.90;;;;;;5023476;28;20082;-84
2022/11/05 02:56:30;;;;;;;2.13;1.15;;;5.60;99.90;;;;;;5019425;28;20136;-82
2022/11/05 02:58:56;;;;;;;0.57;0.57;;;5.60;99.90;;;;;;5006919;28;20060;-82
2022/11/05 03:01:22;;;;;;;3.40;0.70;;;5.50;99.90;;;;;;5012367;28;20391;-82
2022/11/05 03:03:54;;;;;;;1.52;0.95;;;5.50;99.90;;;;;;4993164;28;20046;-82
2022/11/05 03:06:22;;;;;;;2.58;1.17;;;5.40;99.90;;;;;;5012029;28;20054;-82
2022/11/05 03:09:26;;;;;;;2.30;0.68;;;5.40;99.90;;;;;;5023936;28;20065;-83
2022/11/05 03:12:17;;;;;;;14.48;1.88;;;5.40;99.90;;;;;;5014607;28;20050;-82
2022/11/05 03:15:16;;;;;;;0.73;0.70;;;5.40;99.90;;;;;;5013167;28;20046;-83
2022/11/05 03:18:23;;;;;;;1.00;1.00;;;5.30;99.90;;;;;;5025801;28;20481;-83
2022/11/05 03:20:59;;;;;;;1.60;1.42;;;5.40;99.90;;;;;;4997103;28;20055;-83
2022/11/05 03:23:51;;;;;;;1.63;1.23;;;5.30;99.90;;;;;;5008846;28;20058;-82
2022/11/05 03:26:36;;;;;;;2.72;0.95;;;5.30;99.90;;;;;;5018650;28;20121;-84
2022/11/05 03:29:07;;;;;;;0.57;0.45;;;5.40;99.90;;;;;;5010963;28;20057;-83
2022/11/05 03:31:35;;;;;;;2.78;0.98;;;5.40;99.90;;;;;;5010127;28;20050;-83
2022/11/05 03:34:04;;;;;;;0.40;0.40;;;5.40;99.90;;;;;;5010712;28;20044;-83
2022/11/05 03:36:40;;;;;;;3.00;1.35;;;5.40;99.90;;;;;;5004850;28;20045;-82
2022/11/05 03:39:09;;;;;;;4.40;2.15;;;5.40;99.90;;;;;;5007449;28;20081;-82
2022/11/05 03:41:48;;;;;;;6.32;1.88;;;5.40;99.90;;;;;;5008537;28;20156;-83
2022/11/05 03:44:15;;;;;;;;;;;5.50;99.90;;;;;;5009096;28;20431;-84
2022/11/05 03:46:44;;;;;;;2.13;0.47;;;5.50;99.90;;;;;;5008648;28;19921;-83
2022/11/05 03:49:16;;;;;;;8.38;2.17;;;5.40;99.90;;;;;;5002711;28;20046;-83
2022/11/05 03:51:45;;;;;;;;;;;5.50;99.90;;;;;;5002233;28;20034;-83
2022/11/05 03:54:14;;;;;;;5.18;1.20;;;5.50;99.90;;;;;;5001746;28;19937;-83
2022/11/05 03:56:53;;;;;;;0.77;0.68;;;5.50;99.90;;;;;;5006682;28;20182;-83
2022/11/05 03:59:20;;;;;;;0.47;0.43;;;5.50;99.90;;;;;;5007200;28;20049;-82
2022/11/05 04:01:46;;;;;;;1.67;0.95;;;5.40;99.90;;;;;;4993602;28;20057;-82
2022/11/05 04:04:12;;;;;;;1.92;1.20;;;5.50;99.90;;;;;;5005318;28;20121;-83
2022/11/05 04:14:53;;;;;;;0.50;0.50;;;5.40;99.90;;;;;;5000447;28;20053;-84
2022/11/05 04:17:19;;;;;;;0.50;0.47;;;5.40;99.90;;;;;;4994439;28;20096;-83
2022/11/05 04:25:19;;;;;;;4.35;0.75;;;5.40;99.90;;;;;;5022079;28;20053;-84
2022/11/05 04:27:45;;;;;;;1.58;0.82;;;5.40;99.90;;;;;;5004852;28;20104;-83
2022/11/05 04:30:19;;;;;;;1.35;0.73;;;5.30;99.90;;;;;;4994227;28;20053;-84
2022/11/05 04:33:02;;;;;;;0.70;0.70;;;5.30;99.90;;;;;;4977343;28;20046;-83
2022/11/05 04:35:38;;;;;;;8.82;1.23;;;5.30;99.90;;;;;;4999162;28;20153;-82
2022/11/05 04:38:05;;;;;;;0.57;0.57;;;5.30;99.90;;;;;;5002394;28;20046;-82
2022/11/05 04:40:31;;;;;;;2.00;0.52;;;5.30;99.90;;;;;;5004335;28;20501;-83
2022/11/05 04:42:57;;;;;;;0.50;0.50;;;5.20;99.90;;;;;;5003530;28;20054;-83
2022/11/05 04:45:25;;;;;;;0.77;0.52;;;5.20;99.90;;;;;;5004588;28;20061;-84
2022/11/05 04:47:50;;;;;;;0.80;0.80;;;5.20;99.90;;;;;;4990074;28;20136;-82
2022/11/05 04:50:16;;;;;;;2.13;1.25;;;5.20;99.90;;;;;;5014075;28;20124;-83
2022/11/05 04:52:42;;;;;;;0.98;0.75;;;5.20;99.90;;;;;;4993032;28;20148;-83
2022/11/05 04:55:08;;;;;;;0.55;0.55;;;5.20;99.90;;;;;;5005454;28;20070;-83
2022/11/05 04:57:34;;;;;;;4.80;0.85;;;5.20;99.90;;;;;;5005245;28;20069;-82
2022/11/05 05:00:00;;;;;;;2.53;1.00;;;5.10;99.90;;;;;;5019524;28;20081;-84
2022/11/05 05:02:27;;;;;;;3.75;0.65;;;5.10;99.90;;;;;;5004908;28;20045;-83
2022/11/05 05:04:52;;;;;;;2.72;0.98;;;5.10;99.90;;;;;;4988130;28;20370;-83
2022/11/05 05:07:18;;;;;;;0.35;0.35;;;5.10;99.90;;;;;;5007984;28;20049;-83
2022/11/05 05:09:44;;;;;;;2.60;1.02;;;5.10;99.90;;;;;;4993007;28;20089;-84
2022/11/05 05:12:09;;;;;;;2.30;0.77;;;5.10;99.90;;;;;;5006240;28;20050;-83
2022/11/05 05:14:35;;;;;;;0.45;0.40;;;5.00;99.90;;;;;;5005545;28;20065;-83
2022/11/05 05:17:01;;;;;;;3.97;1.08;;;5.00;99.90;;;;;;4992893;28;20049;-83
2022/11/05 05:19:26;;;;;;;0.98;0.82;;;5.00;99.90;;;;;;5004504;28;20088;-83
2022/11/05 05:21:52;;;;;;;0.57;0.57;;;4.90;99.90;;;;;;4994051;28;20075;-83
2022/11/05 05:24:20;;;;;;;1.05;0.95;;;4.90;99.90;;;;;;4985446;28;20045;-83
2022/11/05 05:26:49;;;;;;;0.20;0.10;;;5.00;99.90;;;;;;5003328;28;20060;-83
2022/11/05 05:29:16;;;;;;;1.33;1.23;;;4.90;99.90;;;;;;5003576;28;20042;-83
2022/11/05 05:31:42;;;;;;;1.27;0.82;;;4.90;99.90;;;;;;5009212;28;20060;-82
2022/11/05 05:34:13;;;;;;;0.43;0.43;;;4.90;99.90;;;;;;5002150;28;20037;-82
2022/11/05 05:36:39;;;;;;;0.80;0.60;;;4.90;99.90;;;;;;5017209;28;20169;-83
2022/11/05 05:39:06;;;;;;;3.65;0.98;;;4.90;99.90;;;;;;4997292;28;20133;-83
2022/11/05 05:41:32;;;;;;;0.90;0.73;;;5.00;99.90;;;;;;5006007;28;20054;-83
2022/11/05 05:43:58;;;;;;;0.63;0.52;;;4.90;99.90;;;;;;5005845;28;20139;-83
2022/11/05 05:46:23;;;;;;;1.80;1.17;;;4.90;99.90;;;;;;5005366;28;20039;-82
2022/11/05 05:48:50;;;;;;;1.92;1.10;;;4.90;99.90;;;;;;5006792;28;20397;-83
2022/11/05 05:51:17;;;;;;;0.68;0.60;;;4.90;99.90;;;;;;5003978;28;20049;-85
2022/11/05 05:53:43;;;;;;;2.72;1.10;;;4.90;99.90;;;;;;5003423;28;20065;-83
2022/11/05 05:56:09;;;;;;;1.27;0.75;;;4.90;99.90;;;;;;4991262;28;20034;-83
2022/11/05 05:58:37;;;;;;;2.50;1.15;;;5.00;99.90;;;;;;4984368;28;20046;-83
2022/11/05 06:01:06;;;;;;;2.17;1.88;;;5.00;99.90;;;;;;5014910;28;20092;-83
2022/11/05 06:03:32;;;;;;;5.22;0.65;;;5.10;99.90;;;;;;5017016;28;20128;-83
2022/11/05 06:06:02;;;;;;;2.30;0.88;;;5.20;99.90;;;;;;5020685;28;20045;-82
2022/11/05 06:08:28;;;;;;;0.60;0.60;;;5.30;99.90;;;;;;5005033;28;20050;-82
2022/11/05 06:10:54;;;;;;;8.60;1.00;;;5.40;99.90;;;;;;5003799;28;20061;-83
2022/11/05 06:13:20;;;;;;;0.73;0.30;;;5.50;99.90;;;;;;4989824;28;20168;-86
2022/11/05 06:15:45;;;;;;;1.23;0.77;;;5.50;99.90;;;;;;5007444;28;20041;-82
2022/11/05 06:18:11;;;;;;;2.60;1.13;;;5.70;99.90;;;;;;4992410;28;20390;-83
2022/11/05 06:20:37;;;;;;;1.17;0.60;;;5.70;99.90;;;;;;4989692;28;20121;-83
2022/11/05 06:23:02;;;;;;;1.08;0.93;;;5.70;99.90;;;;;;4986343;28;20128;-83
2022/11/05 06:25:28;;;;;;;1.30;0.90;;;5.80;99.90;;;;;;4986881;28;20042;-83
2022/11/05 06:27:54;;;;;;;1.27;0.63;;;5.70;99.90;;;;;;5007900;28;20042;-83
2022/11/05 06:30:20;;;;;;;1.35;1.00;;;5.70;99.90;;;;;;5005573;28;20049;-83
2022/11/05 06:32:46;;;;;;;1.58;0.75;;;5.70;99.90;;;;;;5000028;28;20121;-83
2022/11/05 06:35:12;;;;;;;0.63;0.63;;;5.60;99.90;;;;;;4990387;28;20592;-85
2022/11/05 06:37:38;;;;;;;1.08;0.60;;;5.60;99.90;;;;;;4983681;28;20070;-83
2022/11/05 06:40:04;;;;;;;1.40;0.88;;;5.50;99.90;;;;;;5002389;28;20539;-83
2022/11/05 06:42:30;;;;;;;2.38;1.45;;;5.50;99.90;;;;;;4975799;28;20693;-83
2022/11/05 06:44:56;;;;;;;0.45;0.40;;;5.50;99.90;;;;;;4993507;28;20045;-83
2022/11/05 06:47:21;;;;;;;4.60;1.00;;;5.40;99.90;;;;;;5001402;28;20123;-85
2022/11/05 06:49:47;;;;;;;1.85;0.77;;;5.50;99.90;;;;;;5004525;28;20082;-83
2022/11/05 06:52:14;;;;;;;1.08;1.02;;;5.50;99.90;;;;;;4993556;28;20087;-83
2022/11/05 06:54:41;;;;;;;2.72;0.68;;;5.50;99.90;;;;;;4993132;28;20075;-83
2022/11/05 06:57:10;;;;;;;0.93;0.77;;;5.50;99.90;;;;;;5005542;28;20053;-82
2022/11/05 06:59:37;;;;;;;2.83;1.65;;;5.50;99.90;;;;;;5003195;28;20039;-82
2022/11/05 07:02:04;;;;;;;1.08;1.05;;;5.50;99.90;;;;;;5008961;28;20133;-83
2022/11/05 07:04:29;;;;;;;2.10;0.93;;;5.50;99.90;;;;;;4993658;28;20434;-83
2022/11/05 07:06:57;;;;;;;0.93;0.68;;;5.50;99.90;;;;;;5011437;28;20156;-82
2022/11/05 07:09:23;;;;;;;9.27;1.13;;;5.50;99.90;;;;;;5010739;28;20401;-83
2022/11/05 07:11:48;;;;;;;5.47;1.05;;;5.50;99.90;;;;;;4992960;28;20052;-84
2022/11/05 07:14:14;;;;;;;0.82;0.80;;;5.50;99.90;;;;;;4994275;28;20057;-83
2022/11/05 07:16:40;;;;;;;0.50;0.50;;;5.50;99.90;;;;;;4995855;28;20056;-83
2022/11/05 07:19:05;;;;;;;2.28;1.08;;;5.60;99.90;;;;;;4986007;28;20082;-83
2022/11/05 07:21:31;;;;;;;0.82;0.70;;;5.50;99.90;;;;;;4992309;28;20081;-83
2022/11/05 07:23:56;;;;;;;1.05;0.95;;;5.50;99.90;;;;;;5006659;28;20096;-83
2022/11/05 07:26:22;;;;;;;2.35;1.60;;;5.60;99.90;;;;;;4988411;28;20096;-82
2022/11/05 07:28:48;;;;;;;1.33;1.20;;;5.60;99.90;;;;;;4978865;28;20129;-83
2022/11/05 07:31:13;;;;;;;0.52;0.52;;;5.60;99.90;;;;;;5004960;28;20546;-82
2022/11/05 07:33:39;;;;;;;2.20;1.38;;;5.70;99.90;;;;;;5007001;28;20042;-83
2022/11/05 07:36:05;;;;;;;2.38;1.08;;;5.70;99.90;;;;;;4994402;28;20096;-83
2022/11/05 07:38:31;;;;;;;2.80;1.65;;;5.70;99.90;;;;;;4991830;28;21636;-83
2022/11/05 07:40:58;;;;;;;3.78;1.25;;;5.70;99.90;;;;;;5014175;28;20085;-83
2022/11/05 07:43:24;;;;;;;2.08;1.20;;;5.70;99.90;;;;;;5009771;28;20085;-83
2022/11/05 07:45:50;;;;;;;5.70;1.35;;;5.70;99.90;;;;;;5003803;28;20089;-86
2022/11/05 07:48:15;;;;;;;2.60;1.80;;;5.80;99.90;;;;;;5009093;28;20045;-84
2022/11/05 07:50:41;;;;;;;3.95;1.60;;;5.80;99.90;;;;;;5002482;28;20108;-83
2022/11/05 07:53:13;;;;;;;1.58;1.08;;;5.80;99.90;;;;;;4992122;28;20046;-84
2022/11/05 07:55:42;;;;;;;1.75;0.95;;;5.90;99.90;;;;;;5005453;28;20127;-85
2022/11/05 07:58:09;;;;;;;1.70;0.52;;;5.90;99.90;;;;;;5006616;28;20038;-82
2022/11/05 08:00:35;;;;;;;1.27;1.08;;;5.90;99.90;;;;;;5006705;28;20074;-83
2022/11/05 08:03:02;;;;;;;2.13;0.75;;;6.00;99.90;;;;;;5004912;28;20080;-84
2022/11/05 08:05:29;;;;;;;0.88;0.88;;;6.10;99.90;;;;;;5013405;28;20107;-83
2022/11/05 08:07:56;;;;;;;1.10;1.08;;;6.20;99.90;;;;;;4995957;28;20041;-83
2022/11/05 08:10:23;;;;;;;4.25;1.23;;;6.20;99.90;;;;;;5007174;28;20042;-83
2022/11/05 08:12:48;;;;;;;3.22;1.05;;;6.30;99.90;;;;;;5011382;28;20497;-87
2022/11/05 08:15:17;;;;;;;2.50;1.50;;;6.40;99.90;;;;;;5002458;28;20038;-84
2022/11/05 08:17:42;;;;;;;1.23;1.13;;;6.40;99.90;;;;;;4996070;28;20385;-83
2022/11/05 08:20:09;;;;;;;3.80;2.03;;;6.50;99.90;;;;;;4995494;28;20057;-82
2022/11/05 08:22:35;;;;;;;1.83;1.30;;;6.60;99.90;;;;;;5013317;28;20064;-81
2022/11/05 08:25:00;;;;;;;2.00;1.27;;;6.60;99.90;;;;;;4992690;28;20046;-82
2022/11/05 08:27:26;;;;;;;1.38;0.95;;;6.70;99.90;;;;;;4981123;28;20057;-81
2022/11/05 08:29:52;;;;;;;1.50;1.33;;;6.80;99.90;;;;;;4990209;28;20048;-84
2022/11/05 08:32:18;;;;;;;7.13;1.35;;;6.80;99.90;;;;;;4993081;28;20038;-83
2022/11/05 08:34:44;;;;;;;2.38;1.75;;;6.90;99.90;;;;;;5005750;28;20613;-82
2022/11/05 08:37:10;;;;;;;7.85;2.08;;;6.90;99.90;;;;;;4990592;28;20085;-83
2022/11/05 08:39:35;;;;;;;1.27;1.17;;;7.00;99.90;;;;;;4989389;28;20140;-82
2022/11/05 08:42:01;;;;;;;3.75;1.38;;;7.10;99.90;;;;;;5011613;28;20302;-84
2022/11/05 08:44:27;;;;;;;2.15;1.60;;;7.20;99.90;;;;;;5009178;28;20042;-84
2022/11/05 08:46:54;;;;;;;6.72;2.42;;;7.20;99.90;;;;;;5011484;28;20105;-83
2022/11/05 08:49:20;;;;;;;1.50;1.20;;;7.30;99.90;;;;;;4992642;28;20046;-82
2022/11/05 08:51:45;;;;;;;1.70;1.35;;;7.40;99.90;;;;;;4989752;28;20357;-82
2022/11/05 08:54:12;;;;;;;5.00;2.15;;;7.50;99.90;;;;;;4994589;28;20049;-83
2022/11/05 08:56:38;;;;;;;1.77;1.52;;;7.60;99.90;;;;;;5008135;28;20505;-83
2022/11/05 08:59:04;;;;;;;1.65;1.10;;;7.70;99.90;;;;;;4999891;28;20076;-83
2022/11/05 09:01:31;;;;;;;2.33;1.35;;;7.90;99.90;;;;;;5004819;28;20408;-82
2022/11/05 09:03:57;;;;;;;1.40;1.30;;;8.10;99.90;;;;;;5008954;28;20443;-82
2022/11/05 09:06:25;;;;;;;5.25;1.80;;;8.30;99.90;;;;;;4993630;28;20045;-82
2022/11/05 09:08:51;;;;;;;6.13;0.98;;;8.70;99.90;;;;;;4983006;28;20118;-83
2022/11/05 09:11:17;;;;;;;1.63;1.42;;;8.90;99.90;;;;;;5006607;28;20050;-81
2022/11/05 09:13:43;;;;;;;1.63;1.15;;;9.00;99.90;;;;;;5004296;28;20397;-84
2022/11/05 09:16:25;;;;;;;3.63;1.58;;;9.10;99.90;;;;;;4991285;28;20545;-81
2022/11/05 09:18:51;;;;;;;;;;;9.20;99.90;;;;;;5006756;28;20073;-81
2022/11/05 09:21:18;;;;;;;2.00;1.15;;;9.30;99.90;;;;;;5007051;28;19964;-83
2022/11/05 09:23:45;;;;;;;2.28;1.38;;;9.40;99.90;;;;;;5009778;28;20054;-84
2022/11/05 09:26:11;;;;;;;2.03;1.85;;;9.40;99.90;;;;;;5006877;28;20061;-81
2022/11/05 09:28:38;;;;;;;2.03;1.58;;;9.60;99.90;;;;;;5009995;28;20539;-82
2022/11/05 09:31:08;;;;;;;8.27;1.50;;;9.90;99.90;;;;;;4996281;28;20136;-81
2022/11/05 09:33:36;;;;;;;3.38;1.00;;;10.50;99.90;;;;;;5022589;28;20046;-81
2022/11/05 09:36:03;;;;;;;3.58;1.70;;;11.00;99.90;;;;;;4991593;28;20089;-82
2022/11/05 09:38:31;;;;;;;1.85;1.23;;;11.10;99.90;;;;;;5011963;28;20129;-81
2022/11/05 09:41:29;;;;;;;5.18;1.23;;;11.10;99.90;;;;;;4995458;28;20050;-81
2022/11/05 09:44:04;;;;;;;1.42;0.93;;;10.90;99.90;;;;;;5010964;28;20053;-82
2022/11/05 09:46:45;;;;;;;1.08;0.88;;;10.70;99.90;;;;;;4995096;28;20053;-81
2022/11/05 09:49:23;;;;;;;1.77;0.90;;;10.70;99.90;;;;;;5011582;28;20088;-81
2022/11/05 09:51:50;;;;;;;0.90;0.80;;;10.60;99.90;;;;;;5011776;28;20096;-82
2022/11/05 09:54:16;;;;;;;3.22;1.08;;;10.50;99.90;;;;;;5009453;28;20504;-81
2022/11/05 09:56:42;;;;;;;2.17;1.23;;;10.40;99.90;;;;;;5009528;28;20050;-85
2022/11/05 09:59:27;;;;;;;1.85;1.23;;;10.30;99.90;;;;;;4994445;28;20070;-83
2022/11/05 10:02:10;;;;;;;4.97;1.00;;;10.20;99.90;;;;;;4989938;28;20100;-83
2022/11/05 10:04:37;;;;;;;2.22;1.00;;;10.10;99.90;;;;;;4981734;28;20050;-84
2022/11/05 10:07:06;;;;;;;1.52;1.30;;;10.10;99.90;;;;;;5010458;28;20053;-83
2022/11/05 10:09:52;;;;;;;1.77;1.48;;;10.00;99.90;;;;;;5012345;28;20046;-80
2022/11/05 10:12:49;;;;;;;3.35;1.40;;;10.00;99.90;;;;;;5011367;28;20042;-81
2022/11/05 10:15:23;;;;;;;2.00;1.00;;;10.20;99.90;;;;;;5011540;28;20112;-81
2022/11/05 10:18:02;;;;;;;3.13;1.23;;;10.20;99.90;;;;;;4997519;28;20046;-83
2022/11/05 10:20:36;;;;;;;1.08;0.85;;;10.40;99.90;;;;;;5012465;28;20084;-81
2022/11/05 10:23:10;;;;;;;5.20;1.48;;;10.60;99.90;;;;;;4998534;28;20497;-84
2022/11/05 10:25:39;;;;;;;3.70;1.40;;;10.70;99.90;;;;;;5014547;28;20061;-82
2022/11/05 10:28:06;;;;;;;1.85;1.58;;;10.80;99.90;;;;;;5010698;28;20496;-82
2022/11/05 10:30:35;;;;;;;2.22;1.13;;;10.90;99.90;;;;;;4990788;28;20074;-82
2022/11/05 10:33:04;;;;;;;2.30;1.25;;;10.90;99.90;;;;;;4995117;28;20125;-81
2022/11/05 10:35:32;;;;;;;3.05;0.85;;;10.90;99.90;;;;;;4994000;28;20046;-82
2022/11/05 10:37:58;;;;;;;2.20;1.10;;;10.90;99.90;;;;;;4998806;28;20388;-82
2022/11/05 10:40:38;;;;;;;0.60;0.60;;;10.90;99.90;;;;;;4994442;28;20062;-82
2022/11/05 10:43:20;;;;;;;1.52;0.90;;;10.90;99.90;;;;;;4981808;28;20053;-82
2022/11/05 10:46:12;;;;;;;4.70;1.88;;;11.00;99.90;;;;;;4998611;28;20133;-81
2022/11/05 10:48:46;;;;;;;1.33;0.77;;;11.00;99.90;;;;;;5014742;28;20046;-82
2022/11/05 10:51:13;;;;;;;1.73;0.75;;;11.10;99.90;;;;;;5010955;28;20046;-81
2022/11/05 10:53:44;;;;;;;7.47;1.88;;;11.20;99.90;;;;;;5014213;28;20046;-83
2022/11/05 10:56:30;;;;;;;2.75;1.02;;;11.30;99.90;;;;;;5011912;28;20480;-80
2022/11/05 10:58:58;;;;;;;1.02;0.93;;;11.30;99.90;;;;;;4994997;28;20121;-81
2022/11/05 11:01:25;;;;;;;0.85;0.47;;;11.40;99.90;;;;;;4980542;28;20053;-84
2022/11/05 11:04:22;;;;;;;1.00;0.63;;;11.40;99.90;;;;;;5015428;28;20481;-82
2022/11/05 11:07:01;;;;;;;0.60;0.40;;;11.50;99.90;;;;;;5014603;28;20266;-83
2022/11/05 11:09:34;;;;;;;0.70;0.70;;;11.60;99.90;;;;;;5011791;28;20050;-82
2022/11/05 11:12:06;;;;;;;1.00;0.90;;;11.60;99.90;;;;;;5011395;28;20049;-81
2022/11/05 11:14:34;;;;;;;2.45;1.00;;;11.60;99.90;;;;;;5017043;28;20060;-83
2022/11/05 11:17:35;;;;;;;1.75;0.90;;;11.60;99.90;;;;;;5021455;28;20048;-84
2022/11/05 11:20:16;;;;;;;3.97;1.38;;;11.70;99.90;;;;;;4963753;28;20042;-84
2022/11/05 11:23:00;;;;;;;1.33;0.60;;;11.70;99.90;;;;;;4992111;28;20060;-81
2022/11/05 11:25:40;;;;;;;0.55;0.45;;;11.80;99.90;;;;;;5021609;28;20042;-84
2022/11/05 11:28:16;;;;;;;0.63;0.55;;;11.90;99.90;;;;;;5021419;28;20044;-82
2022/11/05 11:31:07;;;;;;;7.68;1.05;;;11.80;99.90;;;;;;5021293;28;20050;-85
2022/11/05 11:33:35;;;;;;;3.53;1.48;;;11.90;99.90;;;;;;5018363;28;20041;-84
2022/11/05 11:36:01;;;;;;;1.25;0.82;;;11.80;99.90;;;;;;5018325;28;20077;-83
2022/11/05 11:38:34;;;;;;;1.08;0.57;;;11.80;99.90;;;;;;4979560;28;20481;-83
2022/11/05 11:41:30;;;;;;;1.13;0.90;;;11.70;99.90;;;;;;5012615;28;20409;-82
2022/11/05 11:44:01;;;;;;;2.38;0.65;;;11.60;99.90;;;;;;5003015;28;20481;-84
2022/11/05 11:46:31;;;;;;;2.60;1.38;;;11.60;99.90;;;;;;5014231;28;20136;-81
2022/11/05 11:48:59;;;;;;;5.18;1.45;;;11.60;99.90;;;;;;5003259;28;20137;-82
2022/11/05 11:51:24;;;;;;;2.80;1.15;;;11.50;99.90;;;;;;4997131;28;20046;-82
2022/11/05 11:53:56;;;;;;;0.98;0.77;;;11.50;99.90;;;;;;4996173;28;20046;-82
2022/11/05 11:56:21;;;;;;;0.95;0.75;;;11.50;99.90;;;;;;4997281;28;20046;-81
2022/11/05 11:58:52;;;;;;;1.80;0.95;;;11.50;99.90;;;;;;5012750;28;20375;-84
2022/11/05 12:01:44;;;;;;;3.80;1.15;;;11.50;99.90;;;;;;4995074;28;20485;-82
2022/11/05 12:04:10;;;;;;;;;;;11.50;99.90;;;;;;4997304;28;20549;-83
2022/11/05 12:07:17;;;;;;;5.40;0.93;;;11.50;99.90;;;;;;4997012;28;19921;-83
2022/11/05 12:10:00;;;;;;;3.95;1.10;;;11.60;99.90;;;;;;5013214;28;20057;-81
2022/11/05 12:12:53;;;;;;;2.58;1.10;;;11.60;99.90;;;;;;5013069;28;20137;-81
2022/11/05 12:15:37;;;;;;;3.42;0.77;;;11.60;99.90;;;;;;5013068;28;20155;-81
2022/11/05 12:18:39;;;;;;;2.50;1.83;;;11.60;99.90;;;;;;5013038;28;20481;-82
2022/11/05 12:21:30;;;;;;;1.42;1.00;;;11.60;99.90;;;;;;5010230;28;20050;-81
2022/11/05 12:24:20;;;;;;;1.65;1.55;;;11.60;99.90;;;;;;5007068;28;20061;-82
2022/11/05 12:27:04;;;;;;;3.45;1.33;;;11.60;99.90;;;;;;4993105;28;20129;-83
2022/11/05 12:29:56;;;;;;;2.97;1.42;;;11.70;99.90;;;;;;5029355;28;20052;-81
2022/11/05 12:32:28;;;;;;;;;;;11.70;99.90;;;;;;5026572;28;20124;-84
2022/11/05 12:35:21;;;;;;;5.20;2.10;;;11.70;99.90;;;;;;5029046;28;19921;-82
2022/11/05 12:38:07;;;;;;;2.92;1.50;;;11.80;99.90;;;;;;5011595;28;20112;-82
2022/11/05 12:41:21;;;;;;;4.90;1.65;;;11.90;99.90;;;;;;4995414;28;20046;-82
2022/11/05 12:44:13;;;;;;;6.18;1.27;;;11.90;99.90;;;;;;4977334;28;20413;-81
2022/11/05 12:46:59;;;;;;;5.07;1.40;;;11.90;99.90;;;;;;4978018;28;20050;-82
2022/11/05 12:49:33;;;;;;;4.25;1.33;;;11.80;99.90;;;;;;5011666;28;20133;-84
2022/11/05 12:52:11;;;;;;;2.25;1.08;;;12.00;99.90;;;;;;5027661;28;20539;-83
2022/11/05 12:54:48;;;;;;;6.57;1.08;;;12.00;99.90;;;;;;5011514;28;20552;-83
2022/11/05 12:57:16;;;;;;;2.42;1.40;;;12.10;99.90;;;;;;5009714;28;20046;-82
2022/11/05 12:59:51;;;;;;;8.98;1.55;;;12.20;99.90;;;;;;4994070;28;20057;-81
2022/11/05 13:03:01;;;;;;;1.70;1.60;;;12.30;99.90;;;;;;4975989;28;20044;-83
2022/11/05 13:05:45;;;;;;;5.50;1.27;;;12.30;99.90;;;;;;5010892;28;20050;-82
2022/11/05 13:08:36;;;;;;;4.72;1.23;;;12.30;99.90;;;;;;5007447;28;20064;-82
2022/11/05 13:11:34;;;;;;;3.83;1.45;;;12.30;99.90;;;;;;5012373;28;20149;-82
2022/11/05 13:14:22;;;;;;;7.35;2.08;;;12.20;99.90;;;;;;5027096;28;20089;-84
2022/11/05 13:17:06;;;;;;;2.75;1.77;;;12.20;99.90;;;;;;5001751;28;20071;-85
2022/11/05 13:20:14;;;;;;;4.28;1.65;;;12.20;99.90;;;;;;5011669;28;20112;-82
2022/11/05 13:22:47;;;;;;;2.08;1.88;;;12.10;99.90;;;;;;5021570;28;20058;-86
2022/11/05 13:25:24;;;;;;;3.15;1.65;;;12.10;99.90;;;;;;5021481;28;20057;-83
2022/11/05 13:28:11;;;;;;;3.95;1.90;;;12.10;99.90;;;;;;5020073;28;20128;-83
2022/11/05 13:30:42;;;;;;;2.67;2.28;;;12.00;99.90;;;;;;5002210;28;20046;-84
2022/11/05 13:33:34;;;;;;;5.78;2.22;;;12.00;99.90;;;;;;5007245;28;20405;-84
2022/11/05 13:39:18;;;;;;;2.08;1.23;;;11.90;99.90;;;;;;5008363;28;20058;-85
2022/11/05 13:41:53;;;;;;;5.15;1.67;;;11.80;99.90;;;;;;5010519;28;20057;-82
2022/11/05 13:44:47;;;;;;;4.93;1.92;;;11.70;99.90;;;;;;5010926;28;20046;-83
2022/11/05 13:47:30;;;;;;;2.55;1.20;;;11.70;99.90;;;;;;5009785;28;20045;-84
2022/11/05 13:50:15;;;;;;;2.67;1.80;;;11.70;99.90;;;;;;5006459;28;20076;-81
2022/11/05 13:53:07;;;;;;;3.00;1.48;;;11.70;99.90;;;;;;5011105;28;20129;-81
2022/11/05 13:56:05;;;;;;;;;;;11.70;99.90;;;;;;5016167;28;20045;-82
2022/11/05 13:58:34;;;;;;;2.35;1.83;;;11.60;99.90;;;;;;5001132;28;19933;-82
2022/11/05 14:01:08;;;;;;;1.58;1.10;;;11.60;99.90;;;;;;5005116;28;20393;-83
2022/11/05 14:03:35;;;;;;;14.30;1.55;;;11.60;99.90;;;;;;5016738;28;20050;-81